LFLL

Lyon Saint-Exupéry Airport

Lyon, France
TAF LFLL 231700Z 2318/2424 VRB04KT 9999 FEW025 BECMG 2406/2408 36008KT BECMG 2419/2421 17008KT
Issued Valid From Valid To
Apr-23 @ 17:00 UTC
(6 hours ago)
Apr-23 @ 18:00 UTC
(5 hours ago)
Apr-25 @ 00:00 UTC
(-1 days ago)
Apr-23 @ 18:00 to Apr-24 @ 06:00
TAF LFLL 231700Z 2318/2424 VRB04KT 9999 FEW025
Wind Visibility Clouds
Variable at 4 knots 10,000+ meters
  • Few at 2,500' AGL
Becoming Apr-24 @ 06:00 to Apr-24 @ 19:00
BECMG 2406/2408 36008KT
Wind Visibility Clouds
360° at 8 knots 10,000+ meters
  • Few at 2,500' AGL
Becoming Apr-24 @ 19:00 to Apr-25 @ 00:00
BECMG 2419/2421 17008KT
Wind Visibility Clouds
170° at 8 knots 10,000+ meters
  • Few at 2,500' AGL
TAF LFLL 231700Z 2318/2424 VRB04KT 9999 FEW025 BECMG 2406/2408 36008KT BECMG 2419/2421 17008KT
Issued Apr-23 @ 17:00 UTC
(6 hours ago)
Valid From Apr-23 @ 18:00 UTC
(5 hours ago)
Valid To Apr-25 @ 00:00 UTC
(-1 days ago)
Apr-23 @ 18:00 - Apr-24 @ 06:00
Wind Visibility
Variable at 4 knots 10,000+ meters
Clouds
  • Few at 2,500' AGL
Becoming Apr-24 @ 06:00 - Apr-24 @ 19:00
Wind Visibility
360° at 8 knots 10,000+ meters
Clouds
  • Few at 2,500' AGL
Becoming Apr-24 @ 19:00 - Apr-25 @ 00:00
Wind Visibility
170° at 8 knots 10,000+ meters
Clouds
  • Few at 2,500' AGL